• Join FlightAware (Why Join?)
  • Login
  • US Flag 
07:17AM EDT


 

Airport Tracker/Info


-or-


 

Live Flight TrackerFlight Track Log ✈ UAL555 ✈ 30-Aug-2013 ✈ KORD - KSFO

Flight Track Log - Related Links

Times and Time Zones

All times are in EDT time to prevent confusion due to time zone crossing. See the UAL555 flight status page for this flight to view local times or setup timezone preferences in your user account.

Time Position Orientation Groundspeed Altitude Reporting Facility
EDT Latitude Longitude Course Direction KTS MPH feet Rate Location/Type
10:44PM 42.0000 -87.9333 346° North 170 196 1,500  Level Chicago TRACON
10:45PM 42.0333 -87.9833 312° West 223 257 3,600 1,740 Climbing Chicago TRACON
10:46PM 42.3037 -88.0051 350° North  Level FlightAware Approximate
10:46PM 42.1167 -87.9833 360° North 270 311 5,000  Level Chicago TRACON
10:46PM 42.1456 -87.9831 360° North 267 307 5,400 2,100 Climbing Chicago Center
10:47PM 42.4145 -88.0489 340° North  Level FlightAware Approximate
10:47PM 42.2350 -87.9814 North 269 310 8,700  Level Chicago Center
10:48PM 42.5251 -88.0861 346° North  Level FlightAware Approximate
10:48PM 42.3108 -87.9961 352° North 276 318 11,400  Level Chicago Center
10:49PM 42.6377 -88.1236 346° North  Level FlightAware Approximate
10:49PM 42.3808 -88.0211 345° North 281 323 13,700  Level Chicago Center
10:50PM 42.4586 -88.0508 344° North 289 333 15,800 1,980 Climbing Chicago Center
10:51PM 42.5417 -88.0797 346° North 303 349 17,800 2,040 Climbing Chicago Center
10:52PM 42.6411 -88.1161 345° North 315 362 20,000 1,500 Climbing Chicago Center
10:54PM 42.7356 -88.1500 345° North 345 397 20,900 1,020 Climbing Chicago Center
10:55PM 42.8408 -88.1869 346° North 385 443 22,100 1,320 Climbing Chicago Center
10:56PM 42.9511 -88.2261 345° North 405 466 23,700 1,500 Climbing Chicago Center
10:57PM 43.0625 -88.2664 345° North 413 475 25,200 1,320 Climbing Chicago Center
10:58PM 43.1428 -88.3769 315° West 429 494 26,400 1,620 Climbing Chicago Center
10:59PM 43.1881 -88.5328 292° West 434 499 28,500 1,920 Climbing Chicago Center
11:00PM 43.2333 -88.6819 293° West 421 484 30,400 1,500 Climbing Chicago Center
11:01PM 43.2778 -88.8325 292° West 421 484 31,600 1,440 Climbing Chicago Center
11:02PM 43.3236 -88.9836 293° West 425 489 33,400 1,140 Climbing Chicago Center
11:03PM 43.3667 -89.1292 292° West 413 475 34,000 240 Climbing Chicago Center
11:04PM 43.4111 -89.2825 292° West 425 489 34,000  Level Chicago Center
11:05PM 43.4567 -89.4400 292° West 438 504 34,000  Level Chicago Center
11:06PM 43.4728 -89.6083 278° West 455 524 34,000  Level Chicago Center
11:07PM 43.4825 -89.8069 274° West 447 514 34,000  Level Chicago Center
11:08PM 43.4853 -89.9769 271° West 443 510 34,000  Level Chicago Center
11:09PM 43.4883 -90.1444 271° West 439 505 34,000  Level Chicago Center
11:10PM 43.4908 -90.3167 271° West 436 502 34,000  Level Chicago Center
11:11PM 43.4922 -90.4822 271° West 438 504 34,000  Level Chicago Center
11:12PM 43.4928 -90.6500 270° West 442 509 34,000  Level Chicago Center
11:13PM 43.4950 -90.8183 271° West 446 513 34,000  Level Chicago Center
11:14PM 43.4956 -90.9858 270° West 445 512 34,000  Level Chicago Center
11:15PM 43.4972 -91.1528 271° West 444 511 34,000  Level Minneapolis Center
11:16PM 43.4981 -91.3197 270° West 443 510 34,000  Level Minneapolis Center
11:17PM 43.4983 -91.4850 270° West 440 506 34,000  Level Minneapolis Center
11:18PM 43.4975 -91.6519 270° West 442 509 34,000  Level Minneapolis Center
11:19PM 43.4972 -91.8189 270° West 443 510 34,000  Level Minneapolis Center
11:20PM 43.4972 -91.9531 270° West 444 511 34,000  Level Minneapolis Center
11:21PM 43.4964 -92.1861 270° West 443 510 34,000  Level Minneapolis Center
11:22PM 43.4964 -92.3533 270° West 443 510 34,000  Level Minneapolis Center
11:23PM 43.4936 -92.5203 269° West 443 510 34,000  Level Minneapolis Center
11:24PM 43.4917 -92.6878 269° West 444 511 34,000  Level Minneapolis Center
11:25PM 43.4889 -92.8556 269° West 442 509 34,000  Level Minneapolis Center
11:26PM 43.4869 -93.0222 269° West 441 507 34,000  Level Minneapolis Center
11:27PM 43.4839 -93.2544 269° West 437 503 34,000  Level Minneapolis Center
11:28PM 43.4819 -93.4172 269° West 433 498 34,000  Level Minneapolis Center
11:29PM 43.4781 -93.5817 268° West 433 498 34,000  Level Minneapolis Center
11:30PM 43.4767 -93.7131 269° West 434 499 34,000  Level Minneapolis Center
11:31PM 43.4714 -93.9069 268° West 429 494 34,000  Level Minneapolis Center
11:32PM 43.4692 -94.0678 269° West 426 490 34,000  Level Minneapolis Center
11:33PM 43.4653 -94.2283 268° West 426 490 34,000  Level Minneapolis Center
11:35PM 43.4594 -94.4558 268° West 422 486 34,000  Level Minneapolis Center
11:36PM 43.4544 -94.6175 268° West 423 487 34,000  Level Minneapolis Center
11:37PM 43.4503 -94.7772 268° West 419 482 34,000  Level Minneapolis Center
11:38PM 43.4461 -94.9347 268° West 415 478 34,000  Level Minneapolis Center
11:39PM 43.4414 -95.0903 268° West 409 471 34,000  Level Minneapolis Center
11:40PM 43.4356 -95.2472 267° West 411 473 34,000  Level Minneapolis Center
11:41PM 43.4283 -95.4369 267° West 413 475 34,000 540 Level Minneapolis Center
11:42PM 43.4225 -95.5944 267° West 413 475 35,100 960 Climbing Minneapolis Center
11:43PM 43.4167 -95.7478 267° West 404 465 36,000 420 Climbing Minneapolis Center
11:44PM 43.4122 -95.8967 268° West 394 453 36,000  Level Minneapolis Center
11:45PM 43.4061 -96.0442 267° West 387 445 36,000  Level Minneapolis Center
11:46PM 43.3989 -96.2247 267° West 391 450 36,000  Level Minneapolis Center
11:47PM 43.3908 -96.4081 267° West 398 458 36,000  Level Minneapolis Center
11:48PM 43.3836 -96.5594 266° West 396 456 36,000  Level Minneapolis Center
11:49PM 43.3769 -96.7136 267° West 400 460 36,000 180 Level Minneapolis Center
11:50PM 43.3692 -96.8678 266° West 402 463 36,400 660 Climbing Minneapolis Center
11:51PM 43.3614 -97.0172 266° West 397 457 37,400 780 Climbing Minneapolis Center
11:52PM 43.3550 -97.1619 267° West 385 443 38,000 240 Climbing Minneapolis Center
11:53PM 43.3464 -97.3075 265° West 382 440 38,000  Level Minneapolis Center
11:54PM 43.3389 -97.4578 266° West 391 450 38,000  Level Minneapolis Center
11:55PM 43.3306 -97.6103 266° West 399 459 38,000  Level Minneapolis Center
11:56PM 43.3228 -97.7614 266° West 398 458 38,000  Level Minneapolis Center
11:57PM 43.3158 -97.9114 266° West 396 456 38,000  Level Minneapolis Center
11:58PM 43.3056 -98.0572 265° West 388 447 38,000  Level Minneapolis Center
11:59PM 43.2969 -98.2061 266° West 391 450 38,000  Level Minneapolis Center
12:00AM 43.2881 -98.3528 265° West 387 445 38,000  Level Minneapolis Center
12:01AM 43.2783 -98.4975 265° West 384 442 38,000  Level Minneapolis Center
12:02AM 43.2672 -98.6717 265° West 384 442 38,000  Level Minneapolis Center
12:03AM 43.2569 -98.8186 265° West 386 444 38,000  Level Minneapolis Center
12:04AM 43.2475 -98.9683 265° West 393 452 38,000  Level Minneapolis Center
12:06AM 43.2386 -99.1044 265° West 398 458 38,000  Level Minneapolis Center
12:07AM 43.2289 -99.2564 265° West 400 460 38,000  Level Minneapolis Center
12:08AM 43.2161 -99.4408 265° West 404 465 38,000  Level Minneapolis Center
12:09AM 43.2044 -99.5950 264° West 405 466 38,000  Level Minneapolis Center
12:10AM 43.1933 -99.7486 264° West 405 466 38,000  Level Minneapolis Center
12:11AM 43.1825 -99.9025 265° West 405 466 38,000  Level Minneapolis Center
12:12AM 43.1683 -100.0892 264° West 409 471 38,000  Level Minneapolis Center
12:13AM 43.1553 -100.2450 264° West 411 473 38,000  Level Minneapolis Center
12:14AM 43.1422 -100.4003 263° West 410 472 38,000  Level Minneapolis Center
12:15AM 43.1300 -100.5558 264° West 410 472 38,000  Level Minneapolis Center
12:16AM 43.1172 -100.7092 264° West 408 470 38,000  Level Minneapolis Center
12:17AM 43.1042 -100.8642 263° West 408 470 38,000  Level Minneapolis Center
12:18AM 43.0919 -101.0161 264° West 406 467 38,000  Level Minneapolis Center
12:19AM 43.0792 -101.1686 264° West 404 465 38,000  Level Minneapolis Center
12:20AM 43.0658 -101.3214 263° West 404 465 38,000  Level Minneapolis Center
12:21AM 43.0525 -101.4739 263° West 403 464 38,000  Level Minneapolis Center
12:22AM 43.0381 -101.6269 263° West 405 466 38,000  Level Minneapolis Center
12:23AM 43.0250 -101.7789 263° West 404 465 38,000  Level Minneapolis Center
12:24AM 43.0072 -101.9636 263° West 408 470 38,000  Level Minneapolis Center
12:25AM 42.9933 -102.1189 263° West 410 472 38,000  Level Minneapolis Center
12:26AM 42.9739 -102.3131 262° West 412 474 38,000  Level Denver Center
12:27AM 42.9578 -102.4856 263° West 411 473 38,000  Level Denver Center
12:28AM 42.9456 -102.6331 264° West 409 471 38,000  Level Denver Center
12:29AM 42.9303 -102.7803 262° West 409 471 38,000  Level Denver Center
12:30AM 42.9136 -102.9500 262° West 406 467 38,000  Level Denver Center
12:31AM 42.8986 -103.0942 262° West 402 463 38,000  Level Denver Center
12:32AM 42.8825 -103.2381 261° West 399 459 38,000  Level Denver Center
12:33AM 42.8647 -103.4044 262° West 398 458 38,000  Level Denver Center
12:34AM 42.8514 -103.5456 263° West 393 452 38,000  Level Denver Center
12:36AM 42.8361 -103.6867 262° West 394 453 38,000  Level Denver Center
12:37AM 42.8175 -103.8522 261° West 397 457 38,000  Level Denver Center
12:38AM 42.8017 -103.9922 261° West 393 452 38,000  Level Denver Center
12:39AM 42.7864 -104.1336 262° West 393 452 38,000  Level Denver Center
12:40AM 42.7683 -104.2989 262° West 396 456 38,000  Level Denver Center
12:41AM 42.7536 -104.4406 262° West 398 458 38,000  Level Denver Center
12:42AM 42.7361 -104.6100 262° West 409 471 38,000  Level Denver Center
12:43AM 42.7167 -104.7542 260° West 413 475 38,000  Level Denver Center
12:44AM 42.6986 -104.8975 260° West 408 470 38,000  Level Denver Center
12:45AM 42.6783 -105.0656 261° West 407 468 38,000  Level Denver Center
12:46AM 42.6572 -105.2328 260° West 405 466 38,000  Level Denver Center
12:47AM 42.6358 -105.3983 260° West 401 461 38,000  Level Denver Center
12:48AM 42.6186 -105.5397 261° West 399 459 38,000  Level Denver Center
12:49AM 42.6008 -105.6814 260° West 401 461 38,000  Level Denver Center
12:50AM 42.5789 -105.8456 260° West 399 459 38,000  Level Denver Center
12:51AM 42.5622 -105.9867 261° West 399 459 38,000  Level Denver Center
12:52AM 42.5431 -106.1272 260° West 399 459 38,000  Level Denver Center
12:53AM 42.5217 -106.2919 260° West 399 459 38,000  Level Denver Center
12:54AM 42.5022 -106.4339 260° West 400 460 38,000  Level Denver Center
12:55AM 42.4831 -106.5764 260° West 402 463 38,000  Level Denver Center
12:56AM 42.4642 -106.7175 260° West 399 459 38,000  Level Denver Center
12:57AM 42.4414 -106.8842 260° West 402 463 38,000  Level Denver Center
12:58AM 42.4217 -107.0233 259° West 396 456 38,000  Level Denver Center
12:59AM 42.4025 -107.1650 260° West 400 460 38,000  Level Denver Center
01:00AM 42.3817 -107.3047 259° West 396 456 38,000  Level Salt Lake Center
01:01AM 42.3594 -107.4697 260° West 399 459 38,000  Level Salt Lake Center
01:02AM 42.3375 -107.6092 258° West 398 458 38,000  Level Salt Lake Center
01:03AM 42.3175 -107.7503 259° West 399 459 38,000  Level Salt Lake Center
01:04AM 42.2939 -107.9147 259° West 400 460 38,000  Level Salt Lake Center
01:05AM 42.2722 -108.0556 258° West 401 461 38,000  Level Salt Lake Center
01:06AM 42.2517 -108.1964 259° West 401 461 38,000  Level Salt Lake Center
01:07AM 42.2272 -108.3633 259° West 405 466 38,000  Level Salt Lake Center
01:08AM 42.2067 -108.5039 259° West 402 463 38,000  Level Salt Lake Center
01:09AM 42.1806 -108.6683 258° West 401 461 38,000  Level Salt Lake Center
01:10AM 42.1600 -108.8094 259° West 403 464 38,000  Level Salt Lake Center
01:11AM 42.1378 -108.9503 258° West 403 464 38,000  Level Salt Lake Center
01:12AM 42.1128 -109.1128 258° West 398 458 38,000  Level Salt Lake Center
01:13AM 42.0897 -109.2511 257° West 398 458 38,000  Level Salt Lake Center
01:14AM 42.0683 -109.3881 258° West 394 453 38,000  Level Salt Lake Center
01:15AM 42.0414 -109.5489 257° West 396 456 38,000  Level Salt Lake Center
01:16AM 42.0186 -109.6856 257° West 394 453 38,000  Level Salt Lake Center
01:17AM 41.9958 -109.8236 258° West 396 456 38,000  Level Salt Lake Center
01:18AM 41.9686 -109.9856 257° West 399 459 38,000  Level Salt Lake Center
01:19AM 41.9450 -110.1244 257° West 401 461 38,000  Level Salt Lake Center
01:20AM 41.9169 -110.2889 257° West 406 467 38,000  Level Salt Lake Center
01:21AM 41.8925 -110.4281 257° West 403 464 38,000  Level Salt Lake Center
01:22AM 41.8697 -110.5683 258° West 403 464 38,000  Level Salt Lake Center
01:23AM 41.8400 -110.7325 256° West 406 467 38,000  Level Salt Lake Center
01:24AM 41.8156 -110.8714 257° West 403 464 38,000  Level Salt Lake Center
01:25AM 41.7894 -111.0144 256° West 406 467 38,000  Level Salt Lake Center
01:26AM 41.7633 -111.1614 257° West 406 467 38,000  Level Salt Lake Center
01:27AM 41.7375 -111.3067 257° West 404 465 38,000  Level Salt Lake Center
01:28AM 41.7111 -111.4544 257° West 409 471 38,000  Level Salt Lake Center
01:29AM 41.6839 -111.6028 256° West 412 474 38,000  Level Salt Lake Center
01:30AM 41.6564 -111.7483 256° West 408 470 38,000  Level Salt Lake Center
01:31AM 41.6289 -111.8944 256° West 409 471 38,000  Level Salt Lake Center
01:32AM 41.5958 -112.0697 256° West 408 470 38,000  Level Salt Lake Center
01:33AM 41.5686 -112.2164 256° West 410 472 38,000  Level Salt Lake Center
01:34AM 41.5406 -112.3628 256° West 410 472 38,000  Level Salt Lake Center
01:35AM 41.5128 -112.5092 256° West 410 472 38,000  Level Salt Lake Center
01:36AM 41.4844 -112.6558 256° West 411 473 38,000  Level Salt Lake Center
01:37AM 41.4556 -112.8031 255° West 412 474 38,000  Level Salt Lake Center
01:38AM 41.4269 -112.9506 256° West 414 476 38,000  Level Salt Lake Center
01:39AM 41.3972 -113.0969 255° West 413 475 38,000  Level Salt Lake Center
01:40AM 41.3661 -113.2436 254° West 413 475 38,000  Level Salt Lake Center
01:41AM 41.3247 -113.3878 249° West 416 479 38,000  Level Salt Lake Center
01:42AM 41.2833 -113.5294 249° West 414 476 38,000  Level Salt Lake Center
01:43AM 41.2417 -113.6697 248° West 411 473 38,000  Level Salt Lake Center
01:44AM 41.2014 -113.8114 249° West 412 474 38,000  Level Salt Lake Center
01:45AM 41.1614 -113.9506 249° West 408 470 38,000  Level Salt Lake Center
01:46AM 41.1133 -114.1161 249° West 403 464 38,000  Level Salt Lake Center
01:47AM 41.0725 -114.2531 248° West 402 463 38,000  Level Salt Lake Center
01:48AM 41.0300 -114.3889 248° West 401 461 38,000  Level Salt Lake Center
01:49AM 40.9894 -114.5297 249° West 405 466 38,000  Level Salt Lake Center
01:50AM 40.9503 -114.6656 249° West 411 473 38,000  Level Salt Lake Center
01:52AM 40.9086 -114.8014 248° West 414 476 38,000  Level Salt Lake Center
01:53AM 40.8567 -114.9592 247° West 418 481 38,000  Level Salt Lake Center
01:54AM 40.8169 -115.0958 249° West 417 480 38,000  Level Salt Lake Center
01:55AM 40.7753 -115.2319 248° West 418 481 38,000  Level Salt Lake Center
01:56AM 40.7308 -115.3672 247° West 419 482 38,000  Level Salt Lake Center
01:57AM 40.6833 -115.5256 248° West 416 479 38,000  Level Salt Lake Center
01:58AM 40.6411 -115.6606 248° West 415 478 38,000  Level Salt Lake Center
01:59AM 40.5986 -115.7958 248° West 416 479 38,000  Level Salt Lake Center
02:00AM 40.5511 -115.9528 248° West 414 476 38,000  Level Salt Lake Center
02:01AM 40.5083 -116.0875 247° West 416 479 38,000  Level Salt Lake Center
02:02AM 40.4644 -116.2219 247° West 416 479 38,000  Level Salt Lake Center
02:03AM 40.4147 -116.3781 247° West 414 476 38,000  Level Salt Lake Center
02:04AM 40.3719 -116.5106 247° West 412 474 38,000  Level Salt Lake Center
02:05AM 40.3278 -116.6428 246° West 410 472 38,000  Level Salt Lake Center
02:06AM 40.2828 -116.7783 247° West 415 478 38,000  Level Salt Lake Center
02:07AM 40.2333 -116.9392 248° West 418 481 38,000  Level Salt Lake Center
02:08AM 40.1897 -117.0719 247° West 412 474 38,000  Level Salt Lake Center
02:09AM 40.1467 -117.2036 247° West 410 472 38,000  Level Salt Lake Center
02:10AM 40.1144 -117.3400 253° West 409 471 38,000  Level Salt Lake Center
02:11AM 40.0825 -117.5028 256° West 412 474 38,000  Level Salt Lake Center
02:12AM 40.0561 -117.6414 256° West 412 474 38,000  Level Salt Lake Center
02:13AM 40.0275 -117.7797 255° West 412 474 38,000  Level Salt Lake Center
02:14AM 39.9944 -117.9400 255° West 409 471 38,000  Level Salt Lake Center
02:15AM 39.9653 -118.0828 255° West 408 470 38,000  Level Salt Lake Center
02:16AM 39.9361 -118.2256 255° West 408 470 38,000  Level Salt Lake Center
02:17AM 39.9072 -118.3675 255° West 408 470 38,000  Level Salt Lake Center
02:18AM 39.8778 -118.5089 255° West 407 468 38,000  Level Salt Lake Center
02:19AM 39.8469 -118.6497 254° West 407 468 38,000  Level Salt Lake Center
02:20AM 39.8178 -118.7908 255° West 407 468 38,000  Level Salt Lake Center
02:21AM 39.7875 -118.9314 254° West 408 470 38,000  Level Salt Lake Center
02:22AM 39.7564 -119.0719 254° West 408 470 38,000  Level Salt Lake Center
02:23AM 39.7256 -119.2111 254° West 405 466 38,000  Level Salt Lake Center
02:24AM 39.6831 -119.4067 254° West 403 464 38,000  Level Oakland Center
02:25AM 39.6469 -119.5747 254° West 405 466 38,000  Level Oakland Center
02:26AM 39.6156 -119.7150 254° West 406 467 38,000  Level Oakland Center
02:27AM 39.5836 -119.8556 254° West 408 470 38,000  Level Oakland Center
02:28AM 39.5519 -119.9964 254° West 408 470 38,000  Level Oakland Center
02:29AM 39.5219 -120.1328 254° West 407 468 38,000  Level Oakland Center
02:30AM 39.4889 -120.2722 253° West 408 470 38,000  Level Oakland Center
02:31AM 39.4569 -120.4122 254° West 408 470 38,000  Level Oakland Center
02:32AM 39.4175 -120.5500 250° West 408 470 38,000  Level Oakland Center
02:33AM 39.3514 -120.6689 234° Southwest 409 471 38,000  Level Oakland Center
02:34AM 39.2847 -120.7878 234° Southwest 410 472 38,000  Level Oakland Center
02:35AM 39.2175 -120.9072 234° Southwest 412 474 38,000  Level Oakland Center
02:36AM 39.1506 -121.0253 234° Southwest 411 473 38,000  Level Oakland Center
02:37AM 39.0839 -121.1442 234° Southwest 411 473 38,000  Level Oakland Center
02:38AM 39.0183 -121.2619 234° Southwest 408 470 38,000  Level Oakland Center
02:39AM 38.9508 -121.3803 234° Southwest 411 473 38,000  Level Oakland Center
02:40AM 38.8839 -121.4986 234° Southwest 413 475 38,000  Level Oakland Center
02:41AM 38.8156 -121.6164 233° Southwest 413 475 38,000  Level Oakland Center
02:42AM 38.7492 -121.7314 234° Southwest 410 472 38,000 -600 Level Oakland Center
02:43AM 38.6794 -121.8492 233° Southwest 408 470 36,800 -2,220 Descending Oakland Center
02:44AM 38.6119 -121.9669 234° Southwest 409 471 33,600 -3,240 Descending Oakland Center
02:45AM 38.5417 -122.0886 234° Southwest 422 486 30,300 -3,180 Descending Oakland Center
02:46AM 38.4664 -122.2031 230° Southwest 420 483 27,200 -3,300 Descending Oakland Center
02:47AM 38.3533 -122.2461 197° South 422 486 23,800 -3,420 Descending Oakland Center
02:48AM 38.2314 -122.2664 187° South 435 501 20,400 -3,180 Descending Oakland Center
02:49AM 38.1150 -122.2872 188° South 427 491 17,500 -2,940 Descending Oakland Center
02:50AM 38.0033 -122.3075 188° South 409 471 14,600 -2,880 Descending Oakland Center
02:51AM 37.8936 -122.3264 188° South 394 453 11,800 -1,980 Descending Oakland Center
02:52AM 37.7936 -122.3328 183° South 365 420 10,700 -720 Descending Oakland Center
02:53AM 37.7242 -122.2856 152° Southeast 292 336 10,400 -960 Descending Oakland Center
02:54AM 37.6769 -122.2375 141° Southeast 236 272 8,800 -1,980 Descending Oakland Center
02:55AM 37.6383 -122.1858 133° Southeast 209 241 6,500 -2,220 Descending Oakland Center
02:56AM 37.5986 -122.1397 137° Southeast 201 231 4,400 -1,800 Descending Oakland Center
02:57AM 37.5658 -122.1836 227° Southwest 186 214 2,900 -1,200 Descending Oakland Center
02:58AM 37.5667 -122.2381 271° West 170 196 2,100 -840 Descending Oakland Center
02:59AM 37.5828 -122.2869 293° West 159 183 1,300 -780 Descending Oakland Center
03:00AM 37.5997 -122.3261 299° West 142 163 600 -600 Descending Oakland Center
03:01AM 37.6178 -122.3706 297° West 136 157 200 -420 Descending Oakland Center